Terminal Aerodrome Forecast
Issued by NWS

Home | Current Version | Previous Version | Text Only | Print | Product List | Glossary On
Versions: 1 2 3 4 5 6 7 8 9 10 11 12 13
219
FTUS44 KJAN 010520
TAFHKS
TAF
KHKS 010520Z 0106/0206 00000KT P6SM SKC
     FM011430 02007KT P6SM FEW250
     FM012000 36010G17KT P6SM SCT050 SCT250
     FM020000 35008KT P6SM FEW250=

USA.gov is the U.S. government's official web portal to all federal, state and local government web resources and services.